Terminal Aerodrome Forecast
Issued by NWS Charleston, WV

Home | Current Version | Previous Version | Text Only | Print | Product List | Glossary On
Versions: 1 2 3 4 5 6 7 8 9 10 11 12 13 14 15 16 17 18 19 20 21 22 23 24 25 26 27 28
000
FTUS41 KRLX 292056 AAC
TAFEKN
TAF AMD
KEKN 292056Z 2921/3018 18004KT P6SM VCSH BKN040
     FM300000 VRB03KT 6SM BR SCT035 BKN080
     FM300700 VRB03KT 2SM BR SCT001
     FM301100 VRB03KT 4SM BR BKN040=

USA.gov is the U.S. government's official web portal to all federal, state and local government web resources and services.